Time;durP1;ratioP1;P1;durP2;ratioP2;P2;SDS_P1;SDS_P2;PMS_P1;PMS_P2;Temp;Humidity;BMP_temperature;BMP_pressure;BME280_temperature;BME280_humidity;BME280_pressure;Samples;Min_cycle;Max_cycle;Signal;HPM_P1;HPM_P2
2023/02/13 00:01:09;;;;;;;19.98;8.52;;;;;;;;;;4971627;28;20385;-70
2023/02/13 00:03:34;;;;;;;26.25;9.85;;;;;;;;;;4969322;28;20016;-70
2023/02/13 00:06:00;;;;;;;22.57;9.73;;;;;;;;;;4976260;28;20025;-70
2023/02/13 00:08:26;;;;;;;15.70;6.80;;;;;;;;;;4972916;28;20301;-70
2023/02/13 00:10:51;;;;;;;23.20;9.80;;;;;;;;;;4969748;28;20026;-70
2023/02/13 00:13:16;;;;;;;23.50;9.07;;;;;;;;;;4970312;28;20029;-69
2023/02/13 00:15:41;;;;;;;22.00;9.27;;;;;;;;;;4978773;28;20289;-69
2023/02/13 00:18:06;;;;;;;24.40;10.10;;;;;;;;;;4980277;28;20038;-70
2023/02/13 00:20:32;;;;;;;20.80;8.77;;;;;;;;;;4982352;28;20773;-70
2023/02/13 00:22:58;;;;;;;24.50;9.35;;;;;;;;;;4970719;28;20369;-70
2023/02/13 00:25:23;;;;;;;23.13;8.73;;;;;;;;;;4975306;28;20057;-70
2023/02/13 00:27:50;;;;;;;18.38;7.75;;;;;;;;;;4974497;28;20117;-70
2023/02/13 00:30:15;;;;;;;12.48;6.10;;;;;;;;;;4980516;28;20023;-68
2023/02/13 00:32:40;;;;;;;21.13;7.95;;;;;;;;;;4981780;28;21861;-68
2023/02/13 00:35:05;;;;;;;13.87;5.27;;;;;;;;;;4977396;28;20027;-68
2023/02/13 00:37:32;;;;;;;13.30;6.35;;;;;;;;;;4978327;28;20310;-68
2023/02/13 00:39:57;;;;;;;17.55;7.95;;;;;;;;;;4961118;28;20519;-69
2023/02/13 00:42:25;;;;;;;21.57;8.53;;;;;;;;;;4979755;28;20066;-69
2023/02/13 00:44:50;;;;;;;10.50;4.53;;;;;;;;;;4968184;28;20630;-70
2023/02/13 00:47:15;;;;;;;16.48;6.20;;;;;;;;;;4981837;28;20027;-70
2023/02/13 00:49:40;;;;;;;18.47;8.20;;;;;;;;;;4985345;28;20041;-70
2023/02/13 00:52:06;;;;;;;13.55;4.95;;;;;;;;;;4980377;28;20436;-70
2023/02/13 00:54:31;;;;;;;20.27;9.25;;;;;;;;;;4977818;28;20105;-70
2023/02/13 00:56:56;;;;;;;18.03;7.67;;;;;;;;;;4983621;28;20065;-70
2023/02/13 00:59:21;;;;;;;16.65;5.60;;;;;;;;;;4982367;28;20341;-70
2023/02/13 01:01:46;;;;;;;25.07;8.97;;;;;;;;;;4987064;28;20026;-70
2023/02/13 01:04:11;;;;;;;15.83;8.10;;;;;;;;;;4983191;28;20273;-70
2023/02/13 01:06:37;;;;;;;17.87;7.47;;;;;;;;;;4982463;28;20292;-70
2023/02/13 01:09:02;;;;;;;10.55;5.53;;;;;;;;;;4978453;28;20274;-70
2023/02/13 01:11:28;;;;;;;20.77;8.32;;;;;;;;;;4986819;28;20030;-70
2023/02/13 01:13:53;;;;;;;23.25;10.27;;;;;;;;;;4955682;28;20023;-70
2023/02/13 01:16:18;;;;;;;20.37;9.43;;;;;;;;;;4980538;28;20129;-70
2023/02/13 01:18:43;;;;;;;12.25;4.68;;;;;;;;;;4973628;28;20784;-70
2023/02/13 01:21:14;;;;;;;10.27;5.63;;;;;;;;;;4973396;28;20071;-70
2023/02/13 01:23:39;;;;;;;21.90;9.55;;;;;;;;;;4977905;28;20038;-70
2023/02/13 01:26:05;;;;;;;17.27;8.07;;;;;;;;;;4972961;28;20019;-70
2023/02/13 01:28:30;;;;;;;14.40;6.20;;;;;;;;;;4969352;28;20042;-70
2023/02/13 01:30:55;;;;;;;16.23;6.67;;;;;;;;;;4978332;28;20450;-70
2023/02/13 01:33:21;;;;;;;16.73;6.90;;;;;;;;;;4976090;28;20266;-70
2023/02/13 01:35:46;;;;;;;14.75;5.32;;;;;;;;;;4981696;28;20022;-70
2023/02/13 01:38:11;;;;;;;20.83;10.20;;;;;;;;;;4962923;28;20049;-70
2023/02/13 01:40:43;;;;;;;18.95;7.53;;;;;;;;;;4976376;28;20274;-70
2023/02/13 01:43:08;;;;;;;16.70;8.10;;;;;;;;;;4978724;28;20413;-70
2023/02/13 01:45:33;;;;;;;11.93;4.32;;;;;;;;;;4970822;28;20114;-70
2023/02/13 01:48:01;;;;;;;16.00;7.93;;;;;;;;;;4971506;28;20018;-70
2023/02/13 01:50:47;;;;;;;11.25;4.95;;;;;;;;;;4968980;28;20274;-70
2023/02/13 01:53:15;;;;;;;23.20;10.38;;;;;;;;;;4970231;28;20022;-70
2023/02/13 01:55:49;;;;;;;12.88;5.28;;;;;;;;;;4970152;28;20023;-70
2023/02/13 01:58:17;;;;;;;14.95;5.88;;;;;;;;;;4971581;28;20023;-70
2023/02/13 02:00:48;;;;;;;12.70;5.43;;;;;;;;;;4972019;28;20095;-70
2023/02/13 02:03:16;;;;;;;18.73;7.63;;;;;;;;;;4971984;28;20429;-70
2023/02/13 02:05:41;;;;;;;17.80;7.95;;;;;;;;;;4969760;28;20613;-70
2023/02/13 02:08:09;;;;;;;18.70;8.82;;;;;;;;;;4970213;28;20038;-70
2023/02/13 02:10:34;;;;;;;14.82;7.25;;;;;;;;;;4972535;28;20085;-70
2023/02/13 02:13:10;;;;;;;15.82;7.55;;;;;;;;;;4954550;28;20019;-70
2023/02/13 02:15:35;;;;;;;17.40;7.30;;;;;;;;;;4971708;28;20030;-70
2023/02/13 02:18:00;;;;;;;14.23;6.60;;;;;;;;;;4970067;28;20022;-70
2023/02/13 02:20:45;;;;;;;14.30;6.32;;;;;;;;;;4972275;28;20027;-70
2023/02/13 02:23:17;;;;;;;12.43;5.07;;;;;;;;;;4953821;28;20313;-70
2023/02/13 02:26:00;;;;;;;19.30;7.72;;;;;;;;;;4972225;28;20029;-70
2023/02/13 02:28:34;;;;;;;15.02;7.15;;;;;;;;;;4970547;28;20042;-70
2023/02/13 02:31:13;;;;;;;14.27;5.57;;;;;;;;;;4971721;28;20114;-70
2023/02/13 02:33:49;;;;;;;15.45;6.85;;;;;;;;;;4972016;28;20109;-70
2023/02/13 02:36:20;;;;;;;9.38;4.43;;;;;;;;;;4967609;28;20102;-70
2023/02/13 02:39:06;;;;;;;8.35;4.50;;;;;;;;;;4973155;28;20142;-70
2023/02/13 02:41:46;;;;;;;14.90;7.13;;;;;;;;;;4966030;28;20038;-70
2023/02/13 02:44:18;;;;;;;18.25;6.50;;;;;;;;;;4973617;28;20027;-70
2023/02/13 02:50:00;;;;;;;20.90;8.55;;;;;;;;;;4967902;28;20468;-70
2023/02/13 02:52:44;;;;;;;14.45;5.45;;;;;;;;;;4971429;28;20105;-70
2023/02/13 02:55:16;;;;;;;17.17;7.80;;;;;;;;;;4970488;28;20060;-70
2023/02/13 03:06:13;;;;;;;17.80;6.93;;;;;;;;;;4969128;28;20029;-70
2023/02/13 03:14:13;;;;;;;11.25;5.30;;;;;;;;;;4970271;28;20045;-70
2023/02/13 03:22:24;;;;;;;18.02;7.50;;;;;;;;;;4970241;28;20025;-70
2023/02/13 03:25:01;;;;;;;15.75;6.32;;;;;;;;;;4967765;28;20029;-70
2023/02/13 03:30:35;;;;;;;13.48;4.90;;;;;;;;;;4970296;28;20046;-70
2023/02/13 03:33:06;;;;;;;10.88;5.88;;;;;;;;;;4970816;28;20040;-70
2023/02/13 03:38:39;;;;;;;14.48;7.75;;;;;;;;;;4968280;28;20447;-70
2023/02/13 03:41:18;;;;;;;17.20;8.38;;;;;;;;;;4964327;28;20034;-70
2023/02/13 03:44:08;;;;;;;10.77;4.35;;;;;;;;;;4968548;28;20074;-70
2023/02/13 03:46:36;;;;;;;10.40;4.60;;;;;;;;;;4964664;28;20133;-70
2023/02/13 03:52:08;;;;;;;13.30;5.05;;;;;;;;;;4966613;28;20077;-70
2023/02/13 04:00:09;;;;;;;20.92;8.73;;;;;;;;;;4970721;28;20041;-70
2023/02/13 04:02:38;;;;;;;21.17;9.10;;;;;;;;;;4965969;28;20031;-70
2023/02/13 04:05:07;;;;;;;12.23;5.80;;;;;;;;;;4965647;28;20023;-70
2023/02/13 04:07:32;;;;;;;19.02;8.07;;;;;;;;;;4966457;28;20023;-70
2023/02/13 04:10:01;;;;;;;8.90;4.18;;;;;;;;;;4970039;28;20053;-70
2023/02/13 04:12:35;;;;;;;14.20;5.38;;;;;;;;;;4971438;28;20501;-70
2023/02/13 04:15:07;;;;;;;16.30;6.55;;;;;;;;;;4971143;28;20479;-70
2023/02/13 04:17:36;;;;;;;13.48;5.35;;;;;;;;;;4969475;28;20022;-70
2023/02/13 04:20:02;;;;;;;11.70;4.80;;;;;;;;;;4971445;28;20387;-70
2023/02/13 04:22:27;;;;;;;21.00;10.20;;;;;;;;;;4973998;28;20084;-70
2023/02/13 04:24:52;;;;;;;9.50;3.53;;;;;;;;;;4968432;28;20022;-70
2023/02/13 04:27:17;;;;;;;9.48;5.45;;;;;;;;;;4952852;28;20274;-70
2023/02/13 04:29:43;;;;;;;17.67;8.20;;;;;;;;;;4969864;28;20026;-70
2023/02/13 04:32:09;;;;;;;15.02;7.95;;;;;;;;;;4972838;28;20254;-70
2023/02/13 04:34:34;;;;;;;16.40;8.45;;;;;;;;;;4971740;28;20042;-70
2023/02/13 04:36:59;;;;;;;16.25;6.45;;;;;;;;;;4970057;28;20094;-70
2023/02/13 04:39:24;;;;;;;13.90;8.18;;;;;;;;;;4970825;28;20387;-70
2023/02/13 04:41:49;;;;;;;18.63;8.98;;;;;;;;;;4973077;28;20023;-70
2023/02/13 04:44:15;;;;;;;20.85;8.48;;;;;;;;;;4954536;28;20018;-70
2023/02/13 04:46:40;;;;;;;19.63;9.47;;;;;;;;;;4975838;28;20080;-70
2023/02/13 04:49:05;;;;;;;22.37;8.47;;;;;;;;;;4968733;28;20282;-70
2023/02/13 04:51:30;;;;;;;20.63;10.02;;;;;;;;;;4970931;28;20285;-70
2023/02/13 04:53:55;;;;;;;15.03;6.10;;;;;;;;;;4969710;28;20059;-70
2023/02/13 04:56:20;;;;;;;16.30;5.60;;;;;;;;;;4972723;28;20304;-70
2023/02/13 04:58:46;;;;;;;16.70;8.05;;;;;;;;;;4973203;28;20766;-70
2023/02/13 05:01:12;;;;;;;18.70;8.43;;;;;;;;;;4976301;28;20015;-70
2023/02/13 05:03:37;;;;;;;22.65;10.20;;;;;;;;;;4975740;28;20156;-70
2023/02/13 05:06:02;;;;;;;23.57;9.63;;;;;;;;;;4974810;28;20420;-70
2023/02/13 05:08:27;;;;;;;16.55;6.35;;;;;;;;;;4976000;28;20277;-70
2023/02/13 05:10:52;;;;;;;24.30;10.47;;;;;;;;;;4976599;28;20086;-70
2023/02/13 05:13:20;;;;;;;17.07;8.90;;;;;;;;;;4975449;28;20777;-70
2023/02/13 05:15:46;;;;;;;14.32;6.82;;;;;;;;;;4976019;28;20288;-70
2023/02/13 05:18:11;;;;;;;20.17;9.32;;;;;;;;;;4973582;28;20027;-70
2023/02/13 05:20:36;;;;;;;17.07;8.07;;;;;;;;;;4975883;28;20762;-70
2023/02/13 05:25:45;;;;;;;7.53;4.18;;;;;;;;;;4974299;28;20316;-70
2023/02/13 05:30:54;;;;;;;15.80;6.60;;;;;;;;;;4972691;28;20342;-70
2023/02/13 05:33:19;;;;;;;17.98;8.25;;;;;;;;;;4971003;28;20118;-70
2023/02/13 05:35:44;;;;;;;19.40;8.65;;;;;;;;;;4967737;28;20492;-70
2023/02/13 05:38:10;;;;;;;20.57;9.50;;;;;;;;;;4975087;28;20038;-70
2023/02/13 05:40:35;;;;;;;15.00;5.47;;;;;;;;;;4970558;28;20707;-70
2023/02/13 05:43:00;;;;;;;17.30;8.07;;;;;;;;;;4972972;28;20282;-70
2023/02/13 05:45:25;;;;;;;19.43;9.23;;;;;;;;;;4977714;28;20693;-70
2023/02/13 05:47:50;;;;;;;19.80;9.52;;;;;;;;;;4975884;28;20278;-70
2023/02/13 05:50:16;;;;;;;20.37;9.80;;;;;;;;;;4974751;28;20031;-70
2023/02/13 05:52:41;;;;;;;10.55;5.20;;;;;;;;;;4972874;28;20286;-70
2023/02/13 05:55:06;;;;;;;23.03;10.60;;;;;;;;;;4973759;28;20109;-70
2023/02/13 05:57:31;;;;;;;14.77;8.25;;;;;;;;;;4972022;28;20256;-70
2023/02/13 05:59:56;;;;;;;19.30;9.30;;;;;;;;;;4976020;28;20064;-70
2023/02/13 06:02:22;;;;;;;19.00;9.20;;;;;;;;;;4976046;28;20601;-70
2023/02/13 06:04:47;;;;;;;20.73;9.45;;;;;;;;;;4975579;28;20273;-70
2023/02/13 06:07:12;;;;;;;22.77;9.03;;;;;;;;;;4960680;28;20277;-70
2023/02/13 06:09:37;;;;;;;20.17;8.90;;;;;;;;;;4973755;28;20274;-70
2023/02/13 06:12:02;;;;;;;19.40;8.20;;;;;;;;;;4974147;28;20755;-70
2023/02/13 06:14:27;;;;;;;21.83;10.88;;;;;;;;;;4975930;28;20274;-70
2023/02/13 06:16:53;;;;;;;21.55;9.70;;;;;;;;;;4975176;28;20023;-70
2023/02/13 06:19:18;;;;;;;17.07;7.83;;;;;;;;;;4973328;28;20269;-70
2023/02/13 06:21:43;;;;;;;12.50;6.68;;;;;;;;;;4975297;28;20278;-70
2023/02/13 06:24:08;;;;;;;22.07;11.03;;;;;;;;;;4969345;28;20026;-70
2023/02/13 06:26:33;;;;;;;17.00;8.98;;;;;;;;;;4967186;28;20312;-69
2023/02/13 06:28:58;;;;;;;13.00;7.43;;;;;;;;;;4970430;28;20077;-70
2023/02/13 06:31:24;;;;;;;17.77;7.90;;;;;;;;;;4971861;28;20793;-70
2023/02/13 06:33:49;;;;;;;19.50;8.70;;;;;;;;;;4971845;28;20019;-70
2023/02/13 06:36:14;;;;;;;16.00;7.47;;;;;;;;;;4954803;28;20403;-70
2023/02/13 06:38:39;;;;;;;24.58;10.90;;;;;;;;;;4969801;28;20303;-70
2023/02/13 06:41:05;;;;;;;14.60;6.87;;;;;;;;;;4968624;28;20081;-70
2023/02/13 06:43:31;;;;;;;22.45;10.13;;;;;;;;;;4970907;28;20289;-70
2023/02/13 06:45:56;;;;;;;12.52;5.03;;;;;;;;;;4970521;28;20507;-70
2023/02/13 06:48:21;;;;;;;21.25;8.98;;;;;;;;;;4971723;28;20449;-70
2023/02/13 06:50:47;;;;;;;19.25;10.70;;;;;;;;;;4970550;28;20467;-70
2023/02/13 06:53:12;;;;;;;21.38;10.13;;;;;;;;;;4965081;28;20106;-70
2023/02/13 06:55:40;;;;;;;20.93;8.70;;;;;;;;;;4972749;28;20022;-70
2023/02/13 06:58:05;;;;;;;22.67;10.77;;;;;;;;;;4969064;28;20651;-70
2023/02/13 07:00:30;;;;;;;19.87;10.27;;;;;;;;;;4969283;28;20015;-70
2023/02/13 07:03:00;;;;;;;21.95;10.52;;;;;;;;;;4975417;28;20366;-70
2023/02/13 07:05:25;;;;;;;24.48;11.00;;;;;;;;;;4964805;28;20059;-70
2023/02/13 07:07:51;;;;;;;20.70;10.10;;;;;;;;;;4967354;28;20065;-70
2023/02/13 07:10:16;;;;;;;24.40;8.93;;;;;;;;;;4976997;28;20332;-70
2023/02/13 07:12:42;;;;;;;20.95;10.27;;;;;;;;;;4966243;28;20269;-70
2023/02/13 07:15:07;;;;;;;25.88;11.80;;;;;;;;;;4971003;28;20042;-70
2023/02/13 07:17:33;;;;;;;22.27;10.02;;;;;;;;;;4967732;28;20361;-70
2023/02/13 07:19:58;;;;;;;28.80;12.45;;;;;;;;;;4968383;28;20027;-70
2023/02/13 07:22:23;;;;;;;23.60;10.63;;;;;;;;;;4965025;28;20030;-70
2023/02/13 07:24:48;;;;;;;26.90;11.50;;;;;;;;;;4970825;28;20031;-70
2023/02/13 07:27:13;;;;;;;21.63;10.23;;;;;;;;;;4971061;28;20078;-70
2023/02/13 07:29:39;;;;;;;30.27;12.07;;;;;;;;;;4965330;28;21055;-70
2023/02/13 07:32:05;;;;;;;20.73;10.35;;;;;;;;;;4969371;28;20301;-70
2023/02/13 07:34:31;;;;;;;16.77;8.27;;;;;;;;;;4970233;28;20042;-70
2023/02/13 07:36:56;;;;;;;20.77;9.50;;;;;;;;;;4969364;28;20026;-70
2023/02/13 07:39:21;;;;;;;22.38;10.57;;;;;;;;;;4978014;28;20025;-70
2023/02/13 07:41:46;;;;;;;25.13;10.20;;;;;;;;;;4975863;28;20019;-70
2023/02/13 07:44:11;;;;;;;24.35;10.73;;;;;;;;;;4975856;28;20305;-70
2023/02/13 07:46:36;;;;;;;14.17;6.67;;;;;;;;;;4972450;28;20077;-70
2023/02/13 07:49:02;;;;;;;18.05;9.07;;;;;;;;;;4966268;28;20297;-70
2023/02/13 07:51:27;;;;;;;20.13;10.27;;;;;;;;;;4970112;28;20085;-70
2023/02/13 07:53:53;;;;;;;15.95;7.15;;;;;;;;;;4960681;28;20274;-70
2023/02/13 07:56:18;;;;;;;18.10;9.20;;;;;;;;;;4972032;28;20549;-69
2023/02/13 07:58:44;;;;;;;18.67;9.38;;;;;;;;;;4969710;28;20026;-69
2023/02/13 08:01:10;;;;;;;21.13;9.83;;;;;;;;;;4970610;28;20058;-69
2023/02/13 08:03:35;;;;;;;21.67;9.85;;;;;;;;;;4971148;28;20346;-68
2023/02/13 08:06:01;;;;;;;19.73;9.55;;;;;;;;;;4971514;28;20432;-69
2023/02/13 08:08:26;;;;;;;18.58;10.32;;;;;;;;;;4974923;28;20026;-69
2023/02/13 08:13:36;;;;;;;15.45;7.82;;;;;;;;;;4973308;28;20323;-69
2023/02/13 08:16:01;;;;;;;19.48;9.80;;;;;;;;;;4972722;28;20113;-69
2023/02/13 08:18:26;;;;;;;19.43;8.53;;;;;;;;;;4979065;28;20098;-69
2023/02/13 08:20:54;;;;;;;24.60;9.97;;;;;;;;;;4963584;28;20759;-69
2023/02/13 08:23:19;;;;;;;15.75;7.55;;;;;;;;;;4968405;28;20273;-69
2023/02/13 08:25:46;;;;;;;15.30;9.50;;;;;;;;;;4964838;28;20092;-68
2023/02/13 08:28:11;;;;;;;17.02;9.23;;;;;;;;;;4964597;28;20074;-69
2023/02/13 08:30:36;;;;;;;18.00;8.90;;;;;;;;;;4965713;28;20428;-69
2023/02/13 08:33:01;;;;;;;13.35;6.93;;;;;;;;;;4970866;28;20297;-69
2023/02/13 08:35:28;;;;;;;12.80;6.03;;;;;;;;;;4972321;28;20038;-68
2023/02/13 08:37:54;;;;;;;10.70;5.50;;;;;;;;;;4962916;28;20262;-68
2023/02/13 08:40:19;;;;;;;14.63;7.18;;;;;;;;;;4977982;28;20022;-69
2023/02/13 08:42:44;;;;;;;15.68;7.00;;;;;;;;;;4975470;28;20081;-69
2023/02/13 08:45:10;;;;;;;12.07;6.23;;;;;;;;;;4975042;28;20077;-69
2023/02/13 08:47:36;;;;;;;18.35;8.90;;;;;;;;;;4969452;28;20035;-69
2023/02/13 08:50:01;;;;;;;11.70;6.10;;;;;;;;;;4981055;28;20018;-69
2023/02/13 08:52:26;;;;;;;13.97;8.40;;;;;;;;;;4975021;28;20026;-69
2023/02/13 08:54:52;;;;;;;9.90;4.72;;;;;;;;;;4977693;28;20277;-69
2023/02/13 08:57:17;;;;;;;13.93;6.93;;;;;;;;;;4981302;28;20113;-71
2023/02/13 08:59:42;;;;;;;7.23;3.67;;;;;;;;;;4972385;28;20270;-68
2023/02/13 09:02:09;;;;;;;16.92;8.77;;;;;;;;;;4971586;28;20359;-69
2023/02/13 09:04:34;;;;;;;19.67;9.48;;;;;;;;;;4980479;28;20049;-69
2023/02/13 09:06:59;;;;;;;11.87;5.83;;;;;;;;;;4976725;28;20018;-69
2023/02/13 09:09:25;;;;;;;16.10;7.17;;;;;;;;;;4974477;28;20770;-68
2023/02/13 09:11:51;;;;;;;15.60;7.40;;;;;;;;;;4958612;28;20341;-69
2023/02/13 09:14:16;;;;;;;8.60;4.60;;;;;;;;;;4977703;28;20081;-69
2023/02/13 09:16:41;;;;;;;11.17;5.77;;;;;;;;;;4975027;28;20431;-69
2023/02/13 09:19:06;;;;;;;16.95;7.10;;;;;;;;;;4976451;28;20281;-69
2023/02/13 09:21:31;;;;;;;15.70;6.53;;;;;;;;;;4982248;28;20033;-69
2023/02/13 09:23:57;;;;;;;12.37;5.73;;;;;;;;;;4975616;28;20286;-69
2023/02/13 09:26:22;;;;;;;11.57;5.75;;;;;;;;;;4976746;28;20977;-69
2023/02/13 09:28:47;;;;;;;13.77;6.83;;;;;;;;;;4976423;28;20041;-69
2023/02/13 09:31:14;;;;;;;12.03;5.10;;;;;;;;;;4955202;28;20274;-69
2023/02/13 09:33:40;;;;;;;12.63;6.43;;;;;;;;;;4978577;28;20261;-69
2023/02/13 09:36:17;;;;;;;15.00;5.85;;;;;;;;;;4972431;28;20099;-69
2023/02/13 09:38:43;;;;;;;8.80;3.67;;;;;;;;;;4974788;28;20074;-69
2023/02/13 09:41:11;;;;;;;10.27;4.45;;;;;;;;;;4976008;28;20011;-69
2023/02/13 09:43:42;;;;;;;12.85;5.90;;;;;;;;;;4973910;28;20038;-69
2023/02/13 09:46:11;;;;;;;8.98;4.57;;;;;;;;;;4973090;28;20065;-68
2023/02/13 09:48:39;;;;;;;13.27;7.50;;;;;;;;;;4980493;28;20030;-69
2023/02/13 09:51:04;;;;;;;12.93;3.72;;;;;;;;;;4972179;28;20396;-69
2023/02/13 09:53:32;;;;;;;13.02;7.15;;;;;;;;;;4973520;28;20035;-71
2023/02/13 09:56:03;;;;;;;16.23;6.60;;;;;;;;;;4951949;28;20026;-69
2023/02/13 09:58:43;;;;;;;13.25;6.40;;;;;;;;;;4966993;28;20392;-69
2023/02/13 10:01:27;;;;;;;11.73;5.97;;;;;;;;;;4958538;28;20114;-68
2023/02/13 10:03:58;;;;;;;8.02;3.83;;;;;;;;;;4979424;28;20026;-69
2023/02/13 10:06:28;;;;;;;14.43;6.72;;;;;;;;;;4972530;28;20034;-69
2023/02/13 10:09:08;;;;;;;11.27;6.35;;;;;;;;;;4974742;28;20096;-69
2023/02/13 10:11:33;;;;;;;8.48;3.88;;;;;;;;;;4969212;28;20030;-69
2023/02/13 10:14:02;;;;;;;8.53;4.60;;;;;;;;;;4978919;28;20077;-68
2023/02/13 10:16:34;;;;;;;10.93;5.93;;;;;;;;;;4959610;28;20287;-69
2023/02/13 10:19:12;;;;;;;11.73;5.97;;;;;;;;;;4973722;28;20122;-68
2023/02/13 10:21:41;;;;;;;10.52;6.05;;;;;;;;;;4974962;28;20022;-69
2023/02/13 10:24:26;;;;;;;9.85;4.32;;;;;;;;;;4964083;28;20033;-69
2023/02/13 10:26:52;;;;;;;10.70;5.88;;;;;;;;;;4971518;28;20077;-68
2023/02/13 10:32:17;;;;;;;15.07;6.82;;;;;;;;;;4977331;28;20082;-69
2023/02/13 10:34:45;;;;;;;12.90;5.95;;;;;;;;;;4976661;28;20041;-69
2023/02/13 10:37:16;;;;;;;6.82;3.80;;;;;;;;;;4974128;28;20094;-69
2023/02/13 10:39:41;;;;;;;;;;;;;;;;;;4969209;28;20468;-69
2023/02/13 10:42:13;;;;;;;13.52;5.82;;;;;;;;;;4970806;28;20437;-70
2023/02/13 10:44:41;;;;;;;9.05;4.63;;;;;;;;;;4973277;28;20054;-69
2023/02/13 10:47:21;;;;;;;12.35;4.85;;;;;;;;;;4969094;28;20110;-69
2023/02/13 10:49:46;;;;;;;;;;;;;;;;;;4972641;28;20495;-69
2023/02/13 10:52:11;;;;;;;9.70;5.25;;;;;;;;;;4975111;28;20405;-69
2023/02/13 10:54:50;;;;;;;10.33;5.03;;;;;;;;;;4970221;28;20035;-69
2023/02/13 10:57:30;;;;;;;8.27;3.30;;;;;;;;;;4969152;28;20319;-69
2023/02/13 11:00:13;;;;;;;9.70;5.15;;;;;;;;;;4951800;28;20045;-69
2023/02/13 11:02:40;;;;;;;10.48;5.70;;;;;;;;;;4970563;28;20649;-69
2023/02/13 11:05:14;;;;;;;8.95;4.40;;;;;;;;;;4970751;28;20026;-69
2023/02/13 11:07:41;;;;;;;12.10;5.93;;;;;;;;;;4963058;28;20035;-69
2023/02/13 11:10:13;;;;;;;13.90;5.28;;;;;;;;;;4975882;28;20077;-69
2023/02/13 11:12:38;;;;;;;10.02;4.60;;;;;;;;;;4967450;28;20388;-69
2023/02/13 11:15:05;;;;;;;10.50;5.13;;;;;;;;;;4973174;28;20023;-69
2023/02/13 11:17:34;;;;;;;9.52;4.65;;;;;;;;;;4974607;28;20778;-69
2023/02/13 11:20:01;;;;;;;12.02;5.00;;;;;;;;;;4968732;28;20038;-69
2023/02/13 11:22:38;;;;;;;9.30;4.75;;;;;;;;;;4970023;28;20037;-69
2023/02/13 11:25:03;;;;;;;10.50;4.72;;;;;;;;;;4965422;28;20141;-70
2023/02/13 11:27:33;;;;;;;8.20;4.65;;;;;;;;;;4975083;28;20644;-70
2023/02/13 11:29:58;;;;;;;;;;;;;;;;;;4964702;28;20419;-69
2023/02/13 11:32:25;;;;;;;11.07;5.82;;;;;;;;;;4972804;28;19933;-69
2023/02/13 11:34:50;;;;;;;10.18;5.43;;;;;;;;;;4977915;28;20085;-69
2023/02/13 11:37:36;;;;;;;8.60;4.30;;;;;;;;;;4976578;28;20018;-69
2023/02/13 11:40:20;;;;;;;13.15;5.35;;;;;;;;;;4975454;28;20117;-69
2023/02/13 11:42:46;;;;;;;6.95;2.85;;;;;;;;;;4968853;28;20030;-69
2023/02/13 11:45:22;;;;;;;6.60;3.80;;;;;;;;;;4972510;28;20025;-69
2023/02/13 11:47:47;;;;;;;7.97;3.10;;;;;;;;;;4969830;28;20023;-69
2023/02/13 11:50:21;;;;;;;8.18;4.20;;;;;;;;;;4969010;28;20026;-69
2023/02/13 11:52:55;;;;;;;6.13;3.17;;;;;;;;;;4967462;28;20067;-69
2023/02/13 11:55:28;;;;;;;9.73;4.80;;;;;;;;;;4967577;28;20018;-69
2023/02/13 11:57:55;;;;;;;8.73;4.05;;;;;;;;;;4965348;28;20395;-69
2023/02/13 12:00:36;;;;;;;7.30;2.83;;;;;;;;;;4971225;28;20089;-69
2023/02/13 12:03:01;;;;;;;15.68;6.00;;;;;;;;;;4970753;28;20467;-69
2023/02/13 12:05:26;;;;;;;4.40;1.63;;;;;;;;;;4968362;28;20039;-69
2023/02/13 12:07:54;;;;;;;6.72;3.75;;;;;;;;;;4951600;28;20030;-69
2023/02/13 12:10:19;;;;;;;7.35;3.83;;;;;;;;;;4973217;28;20018;-69
2023/02/13 12:12:52;;;;;;;4.18;2.25;;;;;;;;;;4972380;28;20170;-69
2023/02/13 12:15:19;;;;;;;8.27;1.77;;;;;;;;;;4970993;28;20102;-68
2023/02/13 12:17:46;;;;;;;10.38;4.20;;;;;;;;;;4975049;28;20019;-68
2023/02/13 12:20:15;;;;;;;7.75;4.00;;;;;;;;;;4980294;28;20033;-69
2023/02/13 12:23:00;;;;;;;7.13;3.88;;;;;;;;;;4967669;28;20117;-69
2023/02/13 12:25:28;;;;;;;31.25;4.53;;;;;;;;;;4973449;28;20027;-68
2023/02/13 12:28:06;;;;;;;8.43;4.63;;;;;;;;;;4973026;28;20153;-69
2023/02/13 12:30:37;;;;;;;5.15;2.53;;;;;;;;;;4971470;28;20107;-68
2023/02/13 12:33:05;;;;;;;6.40;2.28;;;;;;;;;;4970830;28;20030;-69
2023/02/13 12:35:59;;;;;;;8.15;3.40;;;;;;;;;;4968277;28;20038;-69
2023/02/13 12:38:33;;;;;;;6.88;3.28;;;;;;;;;;4962856;28;20066;-69
2023/02/13 12:41:17;;;;;;;7.28;3.35;;;;;;;;;;4971913;28;20074;-68
2023/02/13 12:43:48;;;;;;;5.43;3.60;;;;;;;;;;4968754;28;20027;-69
2023/02/13 12:46:19;;;;;;;7.97;3.70;;;;;;;;;;4969156;28;20423;-69
2023/02/13 12:49:03;;;;;;;4.28;1.65;;;;;;;;;;4966634;28;20053;-68
2023/02/13 12:51:28;;;;;;;6.30;2.67;;;;;;;;;;4968633;28;20034;-68
2023/02/13 12:54:13;;;;;;;7.60;3.38;;;;;;;;;;4973898;28;20069;-69
2023/02/13 12:56:40;;;;;;;5.18;2.85;;;;;;;;;;4971906;28;20460;-68
2023/02/13 12:59:06;;;;;;;8.85;2.45;;;;;;;;;;4976235;28;20018;-69
2023/02/13 13:01:50;;;;;;;5.10;2.83;;;;;;;;;;4973810;28;20019;-68
2023/02/13 13:04:35;;;;;;;5.80;2.70;;;;;;;;;;4975527;28;20266;-69
2023/02/13 13:07:19;;;;;;;4.10;1.60;;;;;;;;;;4978368;28;20492;-69
2023/02/13 13:09:44;;;;;;;3.95;2.13;;;;;;;;;;4973538;28;20188;-68
2023/02/13 13:12:20;;;;;;;4.65;2.40;;;;;;;;;;4972101;28;20524;-68
2023/02/13 13:14:46;;;;;;;5.35;2.70;;;;;;;;;;4976738;28;20514;-69
2023/02/13 13:17:11;;;;;;;7.13;2.80;;;;;;;;;;4977883;28;20035;-69
2023/02/13 13:19:43;;;;;;;3.40;1.80;;;;;;;;;;4980715;28;20398;-68
2023/02/13 13:22:16;;;;;;;3.63;2.10;;;;;;;;;;4970044;28;20751;-68
2023/02/13 13:24:48;;;;;;;8.18;3.03;;;;;;;;;;4983932;28;20030;-68
2023/02/13 13:27:21;;;;;;;7.85;2.70;;;;;;;;;;4977795;28;20114;-68
2023/02/13 13:30:05;;;;;;;5.13;2.28;;;;;;;;;;4978710;28;20026;-69
2023/02/13 13:32:31;;;;;;;5.55;3.05;;;;;;;;;;4973532;28;20033;-69
2023/02/13 13:34:57;;;;;;;3.88;2.30;;;;;;;;;;4972931;28;20026;-69
2023/02/13 13:37:28;;;;;;;3.78;1.83;;;;;;;;;;4971995;28;20085;-69
2023/02/13 13:40:00;;;;;;;3.63;2.13;;;;;;;;;;4969431;28;20027;-68
2023/02/13 13:42:33;;;;;;;5.65;2.30;;;;;;;;;;4970379;28;20022;-69
2023/02/13 13:45:19;;;;;;;3.33;1.65;;;;;;;;;;4976671;28;20058;-69
2023/02/13 13:47:54;;;;;;;4.18;2.22;;;;;;;;;;4976611;28;20085;-69
2023/02/13 13:50:23;;;;;;;3.75;1.67;;;;;;;;;;4967847;28;20479;-68
2023/02/13 13:53:08;;;;;;;3.92;1.63;;;;;;;;;;4966271;28;20023;-68
2023/02/13 13:55:46;;;;;;;6.82;2.25;;;;;;;;;;4966494;28;20053;-68
2023/02/13 13:58:20;;;;;;;4.55;2.28;;;;;;;;;;4965633;28;20030;-68
2023/02/13 14:00:45;;;;;;;3.72;2.17;;;;;;;;;;4949401;28;20488;-68
2023/02/13 14:03:21;;;;;;;3.63;1.67;;;;;;;;;;4972799;28;20030;-68
2023/02/13 14:05:57;;;;;;;4.07;1.92;;;;;;;;;;4969731;28;20121;-69
2023/02/13 14:08:41;;;;;;;2.95;1.77;;;;;;;;;;4966923;28;20030;-69
2023/02/13 14:11:24;;;;;;;3.42;1.60;;;;;;;;;;4974358;28;20093;-69
2023/02/13 14:13:50;;;;;;;2.63;1.40;;;;;;;;;;4976647;28;20487;-69
2023/02/13 14:16:35;;;;;;;3.70;1.10;;;;;;;;;;4969204;28;20038;-68
2023/02/13 14:19:00;;;;;;;2.63;1.55;;;;;;;;;;4969873;28;20022;-69
2023/02/13 14:21:25;;;;;;;3.42;1.70;;;;;;;;;;4957855;28;20403;-68
2023/02/13 14:23:56;;;;;;;3.88;2.08;;;;;;;;;;4975119;28;20026;-69
2023/02/13 14:26:29;;;;;;;1.88;1.23;;;;;;;;;;4971173;28;20031;-69
2023/02/13 14:29:00;;;;;;;2.65;1.50;;;;;;;;;;4973252;28;20037;-69
2023/02/13 14:31:42;;;;;;;4.63;2.78;;;;;;;;;;4971685;28;20654;-69
2023/02/13 14:34:21;;;;;;;2.08;0.88;;;;;;;;;;4972129;28;20361;-69
2023/02/13 14:36:57;;;;;;;4.15;2.03;;;;;;;;;;4973232;28;20018;-69
2023/02/13 14:39:30;;;;;;;5.05;1.42;;;;;;;;;;4984258;28;20023;-69
2023/02/13 14:41:57;;;;;;;6.20;3.47;;;;;;;;;;4972570;28;20073;-69
2023/02/13 14:44:31;;;;;;;4.07;1.25;;;;;;;;;;4979891;28;20050;-69
2023/02/13 14:46:57;;;;;;;2.70;1.08;;;;;;;;;;4975600;28;20049;-69
2023/02/13 14:49:30;;;;;;;5.28;1.33;;;;;;;;;;4971106;28;20045;-69
2023/02/13 14:51:57;;;;;;;3.70;1.60;;;;;;;;;;4974494;28;20030;-68
2023/02/13 14:54:25;;;;;;;5.22;2.13;;;;;;;;;;4974210;28;20026;-69
2023/02/13 14:56:51;;;;;;;3.97;1.95;;;;;;;;;;4966917;28;20033;-69
2023/02/13 14:59:18;;;;;;;2.95;1.25;;;;;;;;;;4974748;28;20375;-69
2023/02/13 15:01:47;;;;;;;4.22;1.67;;;;;;;;;;4973792;28;20021;-69
2023/02/13 15:04:25;;;;;;;5.05;1.67;;;;;;;;;;4973657;28;20026;-69
2023/02/13 15:06:51;;;;;;;2.45;1.65;;;;;;;;;;4971816;28;20089;-69
2023/02/13 15:09:20;;;;;;;6.18;1.70;;;;;;;;;;4972160;28;20126;-68
2023/02/13 15:11:46;;;;;;;4.43;1.23;;;;;;;;;;4972994;28;20062;-68
2023/02/13 15:14:29;;;;;;;4.18;1.30;;;;;;;;;;4972628;28;20058;-69
2023/02/13 15:17:12;;;;;;;2.42;1.33;;;;;;;;;;4965702;28;20022;-68
2023/02/13 15:19:42;;;;;;;4.45;1.67;;;;;;;;;;4970757;28;20111;-69
2023/02/13 15:22:16;;;;;;;2.30;1.40;;;;;;;;;;4973726;28;20030;-69
2023/02/13 15:24:45;;;;;;;5.55;1.75;;;;;;;;;;4978567;28;20037;-69
2023/02/13 15:27:16;;;;;;;3.23;1.40;;;;;;;;;;4974415;28;20027;-69
2023/02/13 15:29:52;;;;;;;3.80;1.90;;;;;;;;;;4981830;28;20090;-69
2023/02/13 15:32:18;;;;;;;2.28;1.30;;;;;;;;;;4975540;28;20035;-70